Majesty of the Seas — C6FZ8 — position and weather

sailwx.info

Track history (hours):
 
Tides and Currents Weather Stations Pressure Air Temp Water Temp Dewpoint Dewpoint Depression Visibility Wind Speed Wind Dir Waves Ship Positions

Majesty of the Seas (Bahamas)

Last reported at 2015-Jan-31 06:00 UTC. Time now 2015-Jan-31 21:11 UTC.
Position N 26°12' W 078°48'.

Length 268 m; draft 7.6 m.

Type: Passenger vessel. MMSI: 311734000.

Wind from 020 at 25 knots

Barometer 1020.1 mb
Air temperature 19.5 ° C

Date/timePositionNaut miles runAvg speedWind from/ knotsBaromVisibWave heightAir tempDewpointWater temp
2015-Jan-31 06:00N 26°12' W 078°48'36 9.9 020 / 251020.1 19.5
2015-Jan-31 02:21N 26°07' W 079°27'810.4
2015-Jan-31 01:33N 26°02' W 079°35'1110.5
2015-Jan-31 00:33N 25°57' W 079°45'1010.4
2015-Jan-30 23:33N 25°52' W 079°55'1010.1
2015-Jan-30 22:34N 25°46' W 080°05'6 0.5
2015-Jan-30 11:30N 25°47' W 080°11'8 8.6
2015-Jan-30 10:33N 25°47' W 080°02'1211.5
2015-Jan-30 09:33N 25°39' W 079°53'5916.6
2015-Jan-30 06:00N 24°42' W 080°12'81 2.4 130 / 131021.0 20.5
2015-Jan-28 20:20N 25°51' W 079°26'1012.7
2015-Jan-28 19:33N 25°59' W 079°19'8 0.2
2015-Jan-27 00:25N 26°01' W 079°27'1214.2
2015-Jan-26 23:34N 25°56' W 079°40'1414.5
2015-Jan-26 22:33N 25°50' W 079°54'1312.5
2015-Jan-26 21:33N 25°45' W 080°07'3 1.6
2015-Jan-26 19:28N 25°47' W 080°11'0 0.0
2015-Jan-26 16:22N 25°47' W 080°11'0 0.0
2015-Jan-26 10:28N 25°47' W 080°11'7 7.5
2015-Jan-26 09:33N 25°47' W 080°03'9 8.8
2015-Jan-26 08:33N 25°51' W 079°55'6 6.4
2015-Jan-26 07:33N 25°55' W 079°49'6 5.8
2015-Jan-26 06:33N 25°58' W 079°43'6 5.8
2015-Jan-26 05:33N 26°01' W 079°38'6 5.9
2015-Jan-26 04:33N 26°05' W 079°33'6 5.6
2015-Jan-26 03:33N 26°08' W 079°28'6 6.0
2015-Jan-26 02:32N 26°11' W 079°22'  
Track history (hours):
 
Tides and Currents Weather Stations Pressure Air Temp Water Temp Dewpoint Dewpoint Depression Visibility Wind Speed Wind Dir Waves Ship Positions

Majesty of the Seas (Bahamas)

Last reported at 2015-Jan-31 06:00 UTC. Time now 2015-Jan-31 21:11 UTC.
Position N 26°12' W 078°48'.

Length 268 m; draft 7.6 m.

Type: Passenger vessel. MMSI: 311734000.

Wind from 020 at 25 knots

Barometer 1020.1 mb
Air temperature 19.5 ° C

Date/timePositionNaut miles runAvg speedWind from/ knotsBaromVisibWave heightAir tempDewpointWater temp
2015-Jan-31 06:00N 26°12' W 078°48'36 9.9 020 / 251020.1 19.5
2015-Jan-31 02:21N 26°07' W 079°27'810.4
2015-Jan-31 01:33N 26°02' W 079°35'1110.5
2015-Jan-31 00:33N 25°57' W 079°45'1010.4
2015-Jan-30 23:33N 25°52' W 079°55'1010.1
2015-Jan-30 22:34N 25°46' W 080°05'6 0.5
2015-Jan-30 11:30N 25°47' W 080°11'8 8.6
2015-Jan-30 10:33N 25°47' W 080°02'1211.5
2015-Jan-30 09:33N 25°39' W 079°53'5916.6
2015-Jan-30 06:00N 24°42' W 080°12'81 2.4 130 / 131021.0 20.5
2015-Jan-28 20:20N 25°51' W 079°26'1012.7
2015-Jan-28 19:33N 25°59' W 079°19'8 0.2
2015-Jan-27 00:25N 26°01' W 079°27'1214.2
2015-Jan-26 23:34N 25°56' W 079°40'1414.5
2015-Jan-26 22:33N 25°50' W 079°54'1312.5
2015-Jan-26 21:33N 25°45' W 080°07'3 1.6
2015-Jan-26 19:28N 25°47' W 080°11'0 0.0
2015-Jan-26 16:22N 25°47' W 080°11'0 0.0
2015-Jan-26 10:28N 25°47' W 080°11'7 7.5
2015-Jan-26 09:33N 25°47' W 080°03'9 8.8
2015-Jan-26 08:33N 25°51' W 079°55'6 6.4
2015-Jan-26 07:33N 25°55' W 079°49'6 5.8
2015-Jan-26 06:33N 25°58' W 079°43'6 5.8
2015-Jan-26 05:33N 26°01' W 079°38'6 5.9
2015-Jan-26 04:33N 26°05' W 079°33'6 5.6
2015-Jan-26 03:33N 26°08' W 079°28'6 6.0
2015-Jan-26 02:32N 26°11' W 079°22'  

Dump ship's entire track history